createdAt,value
2023-04-21T00:01:41.809Z,32.70
2023-04-21T00:04:28.151Z,32.80
2023-04-21T00:07:13.802Z,30.20
2023-04-21T00:09:58.903Z,31.23
2023-04-21T00:12:44.204Z,31.13
2023-04-21T00:15:29.639Z,31.97
2023-04-21T00:18:15.354Z,29.90
2023-04-21T00:21:01.202Z,30.67
2023-04-21T00:23:46.423Z,31.80
2023-04-21T00:26:31.774Z,30.73
2023-04-21T00:29:18.061Z,31.47
2023-04-21T00:32:04.052Z,30.57
2023-04-21T00:34:49.589Z,32.53
2023-04-21T00:37:34.871Z,29.67
2023-04-21T00:40:20.087Z,31.47
2023-04-21T00:43:08.249Z,32.80
2023-04-21T00:45:53.355Z,32.83
2023-04-21T00:48:38.753Z,33.60
2023-04-21T00:51:24.806Z,33.57
2023-04-21T00:54:11.959Z,34.23
2023-04-21T00:56:57.190Z,34.77
2023-04-21T00:59:42.729Z,34.03
2023-04-21T01:02:28.262Z,35.67
2023-04-21T01:05:13.651Z,34.93
2023-04-21T01:07:59.163Z,35.17
2023-04-21T01:10:44.716Z,34.03
2023-04-21T01:13:30.586Z,33.47
2023-04-21T01:16:19.547Z,31.60
2023-04-21T01:19:04.706Z,32.13
2023-04-21T01:21:49.989Z,32.30
2023-04-21T01:24:40.057Z,31.93
2023-04-21T01:27:25.268Z,31.03
2023-04-21T01:30:12.515Z,30.67
2023-04-21T01:32:58.090Z,31.77
2023-04-21T01:35:44.953Z,31.03
2023-04-21T01:38:30.606Z,32.53
2023-04-21T01:41:18.408Z,31.70
2023-04-21T01:44:03.769Z,32.50
2023-04-21T01:46:49.621Z,30.77
2023-04-21T01:49:36.758Z,31.47
2023-04-21T01:52:22.076Z,31.33
2023-04-21T01:55:07.771Z,31.27
2023-04-21T01:57:53.203Z,32.87
2023-04-21T02:00:38.361Z,31.83
2023-04-21T02:03:23.814Z,32.13
2023-04-21T02:06:09.036Z,31.93
2023-04-21T02:08:54.525Z,32.13
2023-04-21T02:11:39.890Z,32.83
2023-04-21T02:14:26.241Z,33.07
2023-04-21T02:17:11.643Z,33.23
2023-04-21T02:19:56.851Z,32.70
2023-04-21T02:22:42.570Z,32.97
2023-04-21T02:25:27.991Z,32.33
2023-04-21T02:28:13.567Z,31.93
2023-04-21T02:30:58.922Z,32.23
2023-04-21T02:33:45.056Z,32.47
2023-04-21T02:36:30.573Z,31.70
2023-04-21T02:39:16.641Z,31.20
2023-04-21T02:42:02.268Z,31.50
2023-04-21T02:44:47.556Z,30.83
2023-04-21T02:47:32.756Z,30.90
2023-04-21T02:50:18.414Z,30.40
2023-04-21T02:53:03.860Z,30.97
2023-04-21T02:55:49.436Z,30.80
2023-04-21T02:58:37.972Z,32.10
2023-04-21T03:01:23.453Z,31.07
2023-04-21T03:04:08.850Z,30.97
2023-04-21T03:06:56.613Z,30.20
2023-04-21T03:09:41.755Z,30.47
2023-04-21T03:12:27.303Z,28.53
2023-04-21T03:15:12.392Z,28.47
2023-04-21T03:17:57.706Z,28.60
2023-04-21T03:20:44.466Z,28.07
2023-04-21T03:23:30.320Z,27.43
2023-04-21T03:26:15.720Z,28.00
2023-04-21T03:29:01.190Z,28.17
2023-04-21T03:31:46.324Z,28.90
2023-04-21T03:34:31.454Z,28.80
2023-04-21T03:37:19.462Z,28.33
2023-04-21T03:40:05.327Z,28.20
2023-04-21T03:42:50.672Z,26.77
2023-04-21T03:45:37.438Z,27.47
2023-04-21T03:48:22.945Z,27.63
2023-04-21T03:51:08.384Z,27.07
2023-04-21T03:53:53.920Z,27.60
2023-04-21T03:56:39.356Z,28.37
2023-04-21T03:59:24.861Z,27.37
2023-04-21T04:02:10.465Z,27.10
2023-04-21T04:04:55.908Z,27.30
2023-04-21T04:07:41.670Z,28.90
2023-04-21T04:10:26.983Z,27.73
2023-04-21T04:13:12.198Z,28.73
2023-04-21T04:15:57.825Z,28.37
2023-04-21T04:18:42.901Z,28.97
2023-04-21T04:21:28.326Z,28.43
2023-04-21T04:24:14.035Z,28.63
2023-04-21T04:27:00.261Z,27.50
2023-04-21T04:29:46.559Z,28.97
2023-04-21T04:32:34.221Z,29.13
2023-04-21T04:35:20.486Z,29.50
2023-04-21T04:38:06.415Z,29.30
2023-04-21T04:40:55.240Z,30.97
2023-04-21T04:43:40.325Z,31.70
2023-04-21T04:46:25.810Z,31.57
2023-04-21T04:49:11.055Z,29.83
2023-04-21T04:51:56.891Z,29.97
2023-04-21T04:54:42.553Z,30.03
2023-04-21T04:57:28.036Z,29.53
2023-04-21T05:00:13.673Z,29.07
2023-04-21T05:02:59.003Z,29.37
2023-04-21T05:05:44.188Z,28.70
2023-04-21T05:08:29.450Z,28.60
2023-04-21T05:11:14.677Z,27.87
2023-04-21T05:14:00.055Z,29.37
2023-04-21T05:16:45.423Z,29.33
2023-04-21T05:19:30.553Z,29.47
2023-04-21T05:22:15.890Z,29.80
2023-04-21T05:25:05.451Z,27.93
2023-04-21T05:27:50.672Z,28.37
2023-04-21T05:30:36.218Z,28.67
2023-04-21T05:33:21.596Z,27.87
2023-04-21T05:36:08.323Z,28.30
2023-04-21T05:38:53.618Z,26.27
2023-04-21T05:41:39.221Z,25.50
2023-04-21T05:44:24.703Z,24.40
2023-04-21T05:47:10.613Z,23.60
2023-04-21T05:49:56.150Z,23.17
2023-04-21T05:52:41.430Z,21.57
2023-04-21T05:55:27.367Z,19.47
2023-04-21T05:58:12.450Z,18.90
2023-04-21T06:00:58.036Z,19.60
2023-04-21T06:03:43.658Z,19.10
2023-04-21T06:06:29.220Z,19.43
2023-04-21T06:09:15.417Z,19.33
2023-04-21T06:12:00.616Z,20.27
2023-04-21T06:14:45.921Z,18.70
2023-04-21T06:17:31.162Z,18.23
2023-04-21T06:20:16.368Z,17.63
2023-04-21T06:23:01.904Z,17.73
2023-04-21T06:25:47.501Z,17.97
2023-04-21T06:28:34.185Z,18.40
2023-04-21T06:31:21.130Z,17.77
2023-04-21T06:34:06.560Z,17.08
2023-04-21T06:36:52.567Z,18.97
2023-04-21T06:39:37.746Z,18.05
2023-04-21T06:42:23.163Z,17.48
2023-04-21T06:45:09.277Z,18.50
2023-04-21T06:47:54.762Z,17.88
2023-04-21T06:50:40.001Z,17.35
2023-04-21T06:53:25.261Z,16.77
2023-04-21T06:56:10.578Z,16.10
2023-04-21T06:58:56.477Z,15.70
2023-04-21T07:01:41.882Z,15.30
2023-04-21T07:04:27.300Z,16.25
2023-04-21T07:07:12.564Z,16.63
2023-04-21T07:09:57.954Z,15.88
2023-04-21T07:12:43.174Z,16.02
2023-04-21T07:15:29.889Z,15.65
2023-04-21T07:18:15.109Z,14.18
2023-04-21T07:21:00.647Z,15.63
2023-04-21T07:23:45.932Z,14.93
2023-04-21T07:26:32.135Z,14.68
2023-04-21T07:29:20.212Z,15.02
2023-04-21T07:32:06.034Z,14.90
2023-04-21T07:34:51.527Z,15.10
2023-04-21T07:37:38.013Z,16.00
2023-04-21T07:40:23.340Z,15.82
2023-04-21T07:43:08.724Z,15.38
2023-04-21T07:45:54.267Z,14.93
2023-04-21T07:48:40.792Z,14.40
2023-04-21T07:51:26.582Z,14.23
2023-04-21T07:54:12.254Z,14.60
2023-04-21T07:56:57.701Z,14.05
2023-04-21T07:59:44.287Z,13.90
2023-04-21T08:02:30.213Z,13.30
2023-04-21T08:05:16.324Z,13.68
2023-04-21T08:08:02.089Z,13.02
2023-04-21T08:10:48.003Z,12.98
2023-04-21T08:13:33.440Z,13.35
2023-04-21T08:16:18.991Z,13.57
2023-04-21T08:19:04.535Z,13.35
2023-04-21T08:21:49.940Z,13.10
2023-04-21T08:24:35.321Z,13.80
2023-04-21T08:27:20.444Z,12.60
2023-04-21T08:30:06.872Z,13.07
2023-04-21T08:32:52.136Z,13.00
2023-04-21T08:35:38.423Z,12.50
2023-04-21T08:38:24.740Z,13.50
2023-04-21T08:41:10.444Z,13.27
2023-04-21T08:43:55.716Z,12.38
2023-04-21T08:46:42.616Z,12.02
2023-04-21T08:49:30.563Z,12.65
2023-04-21T08:52:16.042Z,12.38
2023-04-21T08:55:01.631Z,12.25
2023-04-21T08:57:46.909Z,11.38
2023-04-21T09:00:32.127Z,12.23
2023-04-21T09:03:26.268Z,11.95
2023-04-21T09:06:12.700Z,12.57
2023-04-21T09:08:58.301Z,11.55
2023-04-21T09:11:43.606Z,12.15
2023-04-21T09:14:32.353Z,11.07
2023-04-21T09:17:18.961Z,11.57
2023-04-21T09:20:13.194Z,11.23
2023-04-21T09:22:58.762Z,11.32
2023-04-21T09:25:45.382Z,10.57
2023-04-21T09:28:31.649Z,10.95
2023-04-21T09:31:19.145Z,9.98
2023-04-21T09:34:22.103Z,11.05
2023-04-21T09:37:07.265Z,10.38
2023-04-21T09:40:03.363Z,10.63
2023-04-21T09:42:49.763Z,10.70
2023-04-21T09:45:40.089Z,10.63
2023-04-21T09:48:31.634Z,10.43
2023-04-21T09:54:29.733Z,9.52
2023-04-21T09:57:21.322Z,9.73
2023-04-21T10:00:08.575Z,10.02
2023-04-21T10:02:55.255Z,9.43
2023-04-21T10:05:42.789Z,9.02
2023-04-21T10:08:28.704Z,9.02
2023-04-21T10:11:14.510Z,9.38
2023-04-21T10:14:00.305Z,9.82
2023-04-21T10:16:56.371Z,9.05
2023-04-21T10:19:55.510Z,8.88
2023-04-21T10:22:42.816Z,8.98
2023-04-21T10:25:29.706Z,8.60
2023-04-21T10:28:18.410Z,9.18
2023-04-21T10:31:18.115Z,8.95
2023-04-21T10:34:06.353Z,9.20
2023-04-21T10:37:10.081Z,7.63
2023-04-21T10:39:56.039Z,9.48
2023-04-21T10:42:41.450Z,8.43
2023-04-21T10:45:26.603Z,8.93
2023-04-21T10:48:13.890Z,8.57
2023-04-21T10:50:59.159Z,9.43
2023-04-21T10:53:44.580Z,9.45
2023-04-21T10:56:33.288Z,9.45
2023-04-21T10:59:20.276Z,8.75
2023-04-21T11:02:08.811Z,8.90
2023-04-21T11:04:55.751Z,9.20
2023-04-21T11:07:41.186Z,8.63
2023-04-21T11:10:26.865Z,7.55
2023-04-21T11:13:12.075Z,7.57
2023-04-21T11:16:07.700Z,8.50
2023-04-21T11:18:53.357Z,8.50
2023-04-21T11:21:38.770Z,7.75
2023-04-21T11:24:24.770Z,7.80
2023-04-21T11:27:10.239Z,7.75
2023-04-21T11:29:56.216Z,6.88
2023-04-21T11:32:42.750Z,6.85
2023-04-21T11:35:28.238Z,6.60
2023-04-21T11:38:13.876Z,6.80
2023-04-21T11:40:59.350Z,6.80
2023-04-21T11:43:46.100Z,6.55
2023-04-21T11:46:31.588Z,6.68
2023-04-21T11:49:17.119Z,6.25
2023-04-21T11:52:02.705Z,5.28
2023-04-21T11:54:48.616Z,6.10
2023-04-21T11:57:34.225Z,5.95
2023-04-21T12:00:20.101Z,6.35
2023-04-21T12:03:09.195Z,6.70
2023-04-21T12:05:56.871Z,6.03
2023-04-21T12:08:42.129Z,5.10
2023-04-21T12:11:29.463Z,5.07
2023-04-21T12:14:15.754Z,5.35
2023-04-21T12:17:01.342Z,5.57
2023-04-21T12:19:47.282Z,5.18
2023-04-21T12:22:32.456Z,5.40
2023-04-21T12:25:17.961Z,5.35
2023-04-21T12:28:03.825Z,4.70
2023-04-21T12:30:48.973Z,5.05
2023-04-21T12:33:34.663Z,4.45
2023-04-21T12:36:20.072Z,4.85
2023-04-21T12:39:05.765Z,4.78
2023-04-21T12:41:51.302Z,4.65
2023-04-21T12:44:38.766Z,3.92
2023-04-21T12:47:24.011Z,4.53
2023-04-21T12:50:09.715Z,3.95
2023-04-21T12:52:55.058Z,3.90
2023-04-21T12:55:44.652Z,4.40
2023-04-21T12:58:35.230Z,4.25
2023-04-21T13:01:24.370Z,4.70
2023-04-21T13:04:10.160Z,4.50
2023-04-21T13:06:55.784Z,3.92
2023-04-21T13:09:41.204Z,4.00
2023-04-21T13:12:26.804Z,3.70
2023-04-21T13:15:12.110Z,3.75
2023-04-21T13:17:57.322Z,4.20
2023-04-21T13:20:42.710Z,4.10
2023-04-21T13:23:29.365Z,3.90
2023-04-21T13:26:14.956Z,3.75
2023-04-21T13:29:00.131Z,3.60
2023-04-21T13:31:45.555Z,3.55
2023-04-21T13:34:32.888Z,3.55
2023-04-21T13:37:18.944Z,3.70
2023-04-21T13:40:05.577Z,3.25
2023-04-21T13:42:51.007Z,3.00
2023-04-21T13:45:36.680Z,3.30
2023-04-21T13:48:22.180Z,3.17
2023-04-21T13:51:07.652Z,2.78
2023-04-21T13:53:53.013Z,2.80
2023-04-21T13:56:38.362Z,2.95
2023-04-21T13:59:23.782Z,2.85
2023-04-21T14:02:09.138Z,3.13
2023-04-21T14:04:55.001Z,3.05
2023-04-21T14:07:40.381Z,3.20
2023-04-21T14:10:26.039Z,3.00
2023-04-21T14:13:23.105Z,2.80
2023-04-21T14:16:16.911Z,2.95
2023-04-21T14:19:02.633Z,2.88
2023-04-21T14:21:47.771Z,3.10
2023-04-21T14:24:33.030Z,2.90
2023-04-21T14:27:18.258Z,2.55
2023-04-21T14:30:04.324Z,2.80
2023-04-21T14:32:49.798Z,2.58
2023-04-21T14:35:37.741Z,2.95
2023-04-21T14:38:23.212Z,2.88
2023-04-21T14:41:08.753Z,3.00
2023-04-21T14:43:54.176Z,2.75
2023-04-21T14:46:39.746Z,3.08
2023-04-21T14:49:25.235Z,3.10
2023-04-21T14:52:10.951Z,3.00
2023-04-21T14:54:56.189Z,2.60
2023-04-21T14:57:41.787Z,2.80
2023-04-21T15:00:27.275Z,2.97
2023-04-21T15:03:12.704Z,2.90
2023-04-21T15:05:58.369Z,2.63
2023-04-21T15:08:44.761Z,2.83
2023-04-21T15:11:30.089Z,2.50
2023-04-21T15:14:15.735Z,2.90
2023-04-21T15:17:00.930Z,2.53
2023-04-21T15:19:46.929Z,2.90
2023-04-21T15:22:32.587Z,2.65
2023-04-21T15:25:18.198Z,2.40
2023-04-21T15:28:03.951Z,2.50
2023-04-21T15:30:49.766Z,2.40
2023-04-21T15:33:35.452Z,2.78
2023-04-21T15:36:21.232Z,2.65
2023-04-21T15:39:06.258Z,2.40
2023-04-21T15:41:51.854Z,2.75
2023-04-21T15:44:37.277Z,2.72
2023-04-21T15:47:23.226Z,2.75
2023-04-21T15:50:09.226Z,2.60
2023-04-21T15:52:54.798Z,2.55
2023-04-21T15:55:39.883Z,2.30
2023-04-21T15:58:25.378Z,2.88
2023-04-21T16:01:11.095Z,3.00
2023-04-21T16:03:56.577Z,2.50
2023-04-21T16:06:42.358Z,3.00
2023-04-21T16:09:28.023Z,2.60
2023-04-21T16:12:13.121Z,2.60
2023-04-21T16:15:04.194Z,2.50
2023-04-21T16:18:01.704Z,2.78
2023-04-21T16:20:46.867Z,2.60
2023-04-21T16:23:32.283Z,2.53
2023-04-21T16:26:17.808Z,2.78
2023-04-21T16:29:03.261Z,2.65
2023-04-21T16:31:48.458Z,2.83
2023-04-21T16:34:33.909Z,2.80
2023-04-21T16:37:20.477Z,2.88
2023-04-21T16:40:07.495Z,2.95
2023-04-21T16:42:52.889Z,2.90
2023-04-21T16:45:38.685Z,2.83
2023-04-21T16:48:24.009Z,3.08
2023-04-21T16:51:09.135Z,3.08
2023-04-21T16:53:54.547Z,3.15
2023-04-21T16:56:39.856Z,2.80
2023-04-21T16:59:25.358Z,2.78
2023-04-21T17:02:10.654Z,2.70
2023-04-21T17:04:56.235Z,2.97
2023-04-21T17:07:41.795Z,3.22
2023-04-21T17:10:27.144Z,2.72
2023-04-21T17:13:12.492Z,2.90
2023-04-21T17:15:57.985Z,3.30
2023-04-21T17:18:43.539Z,2.95
2023-04-21T17:21:28.906Z,2.80
2023-04-21T17:24:14.135Z,2.63
2023-04-21T17:26:59.484Z,2.90
2023-04-21T17:29:44.634Z,3.35
2023-04-21T17:32:32.751Z,3.20
2023-04-21T17:35:18.510Z,3.03
2023-04-21T17:38:03.717Z,3.40
2023-04-21T17:40:48.980Z,3.30
2023-04-21T17:43:34.288Z,3.10
2023-04-21T17:46:19.860Z,3.17
2023-04-21T17:49:05.547Z,3.10
2023-04-21T17:51:51.022Z,3.35
2023-04-21T17:54:36.530Z,3.35
2023-04-21T17:57:22.301Z,3.25
2023-04-21T18:00:08.487Z,3.45
2023-04-21T18:02:53.884Z,3.20
2023-04-21T18:05:39.870Z,3.08
2023-04-21T18:08:25.399Z,3.15
2023-04-21T18:11:10.747Z,3.15
2023-04-21T18:13:56.262Z,3.05
2023-04-21T18:16:41.522Z,3.47
2023-04-21T18:19:26.890Z,2.88
2023-04-21T18:22:12.270Z,3.28
2023-04-21T18:24:58.054Z,3.40
2023-04-21T18:27:43.789Z,3.05
2023-04-21T18:30:30.749Z,3.35
2023-04-21T18:33:16.326Z,3.50
2023-04-21T18:36:01.651Z,3.53
2023-04-21T18:38:47.322Z,3.33
2023-04-21T18:41:32.588Z,3.58
2023-04-21T18:44:17.843Z,3.65
2023-04-21T18:47:03.530Z,3.42
2023-04-21T18:49:49.123Z,3.97
2023-04-21T18:52:34.474Z,3.38
2023-04-21T18:55:20.838Z,3.78
2023-04-21T18:58:06.405Z,3.78
2023-04-21T19:00:51.888Z,4.05
2023-04-21T19:03:38.045Z,4.00
2023-04-21T19:06:23.733Z,3.90
2023-04-21T19:09:09.318Z,4.38
2023-04-21T19:11:54.670Z,4.28
2023-04-21T19:14:46.484Z,4.45
2023-04-21T19:17:32.901Z,4.10
2023-04-21T19:20:18.893Z,5.07
2023-04-21T19:23:04.482Z,5.07
2023-04-21T19:25:50.005Z,4.45
2023-04-21T19:28:39.420Z,4.47
2023-04-21T19:31:25.547Z,4.70
2023-04-21T19:34:11.088Z,4.75
2023-04-21T19:36:56.817Z,4.38
2023-04-21T19:39:42.657Z,4.68
2023-04-21T19:42:28.358Z,4.93
2023-04-21T19:45:14.063Z,4.43
2023-04-21T19:47:59.622Z,4.60
2023-04-21T19:50:45.038Z,4.82
2023-04-21T19:53:30.515Z,4.50
2023-04-21T19:56:16.243Z,4.70
2023-04-21T19:59:01.615Z,4.85
2023-04-21T20:01:46.920Z,4.70
2023-04-21T20:04:32.507Z,4.80
2023-04-21T20:07:17.856Z,4.57
2023-04-21T20:10:04.382Z,4.60
2023-04-21T20:12:49.620Z,4.72
2023-04-21T20:15:35.020Z,4.43
2023-04-21T20:18:20.756Z,4.85
2023-04-21T20:21:06.098Z,4.70
2023-04-21T20:23:51.391Z,4.60
2023-04-21T20:26:36.812Z,4.57
2023-04-21T20:29:22.152Z,4.70
2023-04-21T20:32:07.398Z,4.47
2023-04-21T20:34:52.986Z,4.53
2023-04-21T20:37:38.377Z,4.63
2023-04-21T20:40:24.099Z,4.75
2023-04-21T20:43:09.843Z,4.95
2023-04-21T20:45:55.282Z,4.85
2023-04-21T20:48:40.803Z,5.10
2023-04-21T20:51:26.399Z,5.35
2023-04-21T20:54:11.441Z,5.18
2023-04-21T20:56:56.656Z,5.00
2023-04-21T20:59:42.124Z,5.20
2023-04-21T21:02:27.810Z,5.18
2023-04-21T21:05:13.369Z,5.03
2023-04-21T21:07:59.011Z,5.10
2023-04-21T21:10:44.446Z,5.63
2023-04-21T21:13:29.856Z,4.97
2023-04-21T21:16:15.614Z,5.30
2023-04-21T21:19:01.041Z,5.20
2023-04-21T21:21:46.160Z,4.78
2023-04-21T21:24:31.894Z,5.00
2023-04-21T21:27:17.159Z,4.97
2023-04-21T21:30:03.312Z,4.80
2023-04-21T21:32:48.489Z,4.68
2023-04-21T21:35:33.651Z,5.05
2023-04-21T21:38:19.191Z,5.05
2023-04-21T21:41:04.707Z,5.22
2023-04-21T21:43:50.377Z,5.32
2023-04-21T21:46:35.832Z,4.88
2023-04-21T21:49:21.112Z,4.95
2023-04-21T21:52:06.705Z,4.93
2023-04-21T21:55:17.575Z,5.30
2023-04-21T21:58:03.345Z,5.03
2023-04-21T22:00:49.036Z,4.47
2023-04-21T22:03:35.897Z,5.05
2023-04-21T22:06:21.803Z,4.88
2023-04-21T22:09:07.086Z,4.75
2023-04-21T22:11:52.768Z,5.28
2023-04-21T22:14:37.963Z,4.93
2023-04-21T22:17:25.008Z,4.78
2023-04-21T22:20:10.919Z,4.85
2023-04-21T22:22:56.325Z,4.72
2023-04-21T22:25:41.820Z,4.38
2023-04-21T22:28:27.466Z,4.53
2023-04-21T22:31:13.000Z,5.03
2023-04-21T22:33:58.357Z,4.63
2023-04-21T22:36:44.076Z,4.28
2023-04-21T22:39:29.496Z,4.55
2023-04-21T22:42:15.119Z,4.28
2023-04-21T22:45:00.590Z,4.38
2023-04-21T22:47:45.847Z,4.65
2023-04-21T22:50:31.309Z,4.68
2023-04-21T22:53:16.900Z,4.32
2023-04-21T22:56:03.061Z,4.28
2023-04-21T22:58:48.710Z,4.30
2023-04-21T23:01:33.829Z,4.40
2023-04-21T23:04:19.335Z,4.90
2023-04-21T23:07:04.839Z,4.22
2023-04-21T23:09:50.067Z,4.70
2023-04-21T23:12:35.341Z,4.38
2023-04-21T23:15:20.807Z,4.32
2023-04-21T23:18:06.459Z,4.70
2023-04-21T23:20:52.558Z,4.63
2023-04-21T23:23:37.562Z,5.00
2023-04-21T23:26:23.201Z,4.75
2023-04-21T23:29:08.370Z,5.28
2023-04-21T23:31:54.110Z,4.75
2023-04-21T23:34:39.652Z,4.82
2023-04-21T23:37:25.065Z,5.28
2023-04-21T23:40:11.115Z,5.53
2023-04-21T23:42:56.667Z,5.47
2023-04-21T23:45:42.303Z,5.30
2023-04-21T23:48:27.491Z,5.27
2023-04-21T23:51:12.964Z,5.10
2023-04-21T23:53:58.316Z,5.83
2023-04-21T23:56:43.762Z,5.47
2023-04-21T23:59:29.286Z,5.53
